sensor_id;sensor_type;location;lat;lon;timestamp;temperature;humidity
16907;DHT22;8570;52.380;4.654;2023-02-21T00:01:37;8.60;99.90
16907;DHT22;8570;52.380;4.654;2023-02-21T00:06:57;8.60;99.90
16907;DHT22;8570;52.380;4.654;2023-02-21T00:12:16;8.60;99.90
16907;DHT22;8570;52.380;4.654;2023-02-21T00:17:36;8.60;99.90
16907;DHT22;8570;52.380;4.654;2023-02-21T00:22:55;8.60;99.90
16907;DHT22;8570;52.380;4.654;2023-02-21T00:28:15;8.60;99.90
16907;DHT22;8570;52.380;4.654;2023-02-21T00:33:36;8.60;99.90
16907;DHT22;8570;52.380;4.654;2023-02-21T00:38:55;8.60;99.90
16907;DHT22;8570;52.380;4.654;2023-02-21T00:44:15;8.60;99.90
16907;DHT22;8570;52.380;4.654;2023-02-21T00:49:36;8.60;99.90
16907;DHT22;8570;52.380;4.654;2023-02-21T00:54:55;8.60;99.90
16907;DHT22;8570;52.380;4.654;2023-02-21T01:00:16;8.60;99.90
16907;DHT22;8570;52.380;4.654;2023-02-21T01:05:37;8.60;99.90
16907;DHT22;8570;52.380;4.654;2023-02-21T01:10:56;8.60;99.90
16907;DHT22;8570;52.380;4.654;2023-02-21T01:16:16;8.60;99.90
16907;DHT22;8570;52.380;4.654;2023-02-21T01:21:39;8.70;99.90
16907;DHT22;8570;52.380;4.654;2023-02-21T01:26:59;8.70;99.90
16907;DHT22;8570;52.380;4.654;2023-02-21T01:32:18;8.70;99.90
16907;DHT22;8570;52.380;4.654;2023-02-21T01:37:40;8.70;99.90
16907;DHT22;8570;52.380;4.654;2023-02-21T01:43:00;8.70;99.90
16907;DHT22;8570;52.380;4.654;2023-02-21T01:48:21;8.70;99.90
16907;DHT22;8570;52.380;4.654;2023-02-21T01:53:42;8.60;99.90
16907;DHT22;8570;52.380;4.654;2023-02-21T01:59:02;8.70;99.90
16907;DHT22;8570;52.380;4.654;2023-02-21T02:04:21;8.70;99.90
16907;DHT22;8570;52.380;4.654;2023-02-21T02:09:42;8.70;99.90
16907;DHT22;8570;52.380;4.654;2023-02-21T02:15:18;8.70;99.90
16907;DHT22;8570;52.380;4.654;2023-02-21T02:32:09;8.70;99.90
16907;DHT22;8570;52.380;4.654;2023-02-21T02:37:21;8.70;99.90
16907;DHT22;8570;52.380;4.654;2023-02-21T02:42:34;8.60;99.90
16907;DHT22;8570;52.380;4.654;2023-02-21T02:47:40;8.70;99.90
16907;DHT22;8570;52.380;4.654;2023-02-21T02:52:51;8.70;99.90
16907;DHT22;8570;52.380;4.654;2023-02-21T02:57:53;8.70;99.90
16907;DHT22;8570;52.380;4.654;2023-02-21T03:03:05;8.70;99.90
16907;DHT22;8570;52.380;4.654;2023-02-21T03:08:19;8.70;99.90
16907;DHT22;8570;52.380;4.654;2023-02-21T03:13:32;8.60;99.90
16907;DHT22;8570;52.380;4.654;2023-02-21T03:18:41;8.60;99.90
16907;DHT22;8570;52.380;4.654;2023-02-21T03:23:49;8.70;99.90
16907;DHT22;8570;52.380;4.654;2023-02-21T03:28:52;8.70;99.90
16907;DHT22;8570;52.380;4.654;2023-02-21T03:33:55;8.70;99.90
16907;DHT22;8570;52.380;4.654;2023-02-21T03:38:58;8.70;99.90
16907;DHT22;8570;52.380;4.654;2023-02-21T03:44:00;8.70;99.90
16907;DHT22;8570;52.380;4.654;2023-02-21T03:49:02;8.70;99.90
16907;DHT22;8570;52.380;4.654;2023-02-21T03:54:05;8.70;99.90
16907;DHT22;8570;52.380;4.654;2023-02-21T03:59:07;8.70;99.90
16907;DHT22;8570;52.380;4.654;2023-02-21T04:04:09;8.70;99.90
16907;DHT22;8570;52.380;4.654;2023-02-21T04:09:12;8.70;99.90
16907;DHT22;8570;52.380;4.654;2023-02-21T04:14:14;8.70;99.90
16907;DHT22;8570;52.380;4.654;2023-02-21T04:19:16;8.70;99.90
16907;DHT22;8570;52.380;4.654;2023-02-21T04:24:19;8.70;99.90
16907;DHT22;8570;52.380;4.654;2023-02-21T04:29:21;8.70;99.90
16907;DHT22;8570;52.380;4.654;2023-02-21T04:34:26;8.70;99.90
16907;DHT22;8570;52.380;4.654;2023-02-21T04:39:29;8.70;99.90
16907;DHT22;8570;52.380;4.654;2023-02-21T04:44:31;8.70;99.90
16907;DHT22;8570;52.380;4.654;2023-02-21T04:49:33;8.70;99.90
16907;DHT22;8570;52.380;4.654;2023-02-21T04:54:36;8.70;99.90
16907;DHT22;8570;52.380;4.654;2023-02-21T04:59:38;8.70;99.90
16907;DHT22;8570;52.380;4.654;2023-02-21T05:04:40;8.70;99.90
16907;DHT22;8570;52.380;4.654;2023-02-21T05:09:44;8.70;99.90
16907;DHT22;8570;52.380;4.654;2023-02-21T05:14:46;8.70;99.90
16907;DHT22;8570;52.380;4.654;2023-02-21T05:19:48;8.70;99.90
16907;DHT22;8570;52.380;4.654;2023-02-21T05:24:51;8.60;99.90
16907;DHT22;8570;52.380;4.654;2023-02-21T05:29:53;8.70;99.90
16907;DHT22;8570;52.380;4.654;2023-02-21T05:34:55;8.70;99.90
16907;DHT22;8570;52.380;4.654;2023-02-21T05:39:58;8.70;99.90
16907;DHT22;8570;52.380;4.654;2023-02-21T05:45:00;8.70;99.90
16907;DHT22;8570;52.380;4.654;2023-02-21T05:50:02;8.70;99.90
16907;DHT22;8570;52.380;4.654;2023-02-21T05:55:06;8.70;99.90
16907;DHT22;8570;52.380;4.654;2023-02-21T06:00:14;8.70;99.90
16907;DHT22;8570;52.380;4.654;2023-02-21T06:05:17;8.70;99.90
16907;DHT22;8570;52.380;4.654;2023-02-21T06:10:20;8.70;99.90
16907;DHT22;8570;52.380;4.654;2023-02-21T06:15:22;8.70;99.90
16907;DHT22;8570;52.380;4.654;2023-02-21T06:20:24;8.70;99.90
16907;DHT22;8570;52.380;4.654;2023-02-21T06:25:27;8.70;99.90
16907;DHT22;8570;52.380;4.654;2023-02-21T06:30:29;8.70;99.90
16907;DHT22;8570;52.380;4.654;2023-02-21T06:35:31;8.70;99.90
16907;DHT22;8570;52.380;4.654;2023-02-21T06:40:34;8.70;99.90
16907;DHT22;8570;52.380;4.654;2023-02-21T06:45:36;8.70;99.90
16907;DHT22;8570;52.380;4.654;2023-02-21T06:50:38;8.80;99.90
16907;DHT22;8570;52.380;4.654;2023-02-21T06:55:42;8.70;99.90
16907;DHT22;8570;52.380;4.654;2023-02-21T07:00:43;8.70;99.90
16907;DHT22;8570;52.380;4.654;2023-02-21T07:05:46;8.70;99.90
16907;DHT22;8570;52.380;4.654;2023-02-21T07:10:49;8.80;99.90
16907;DHT22;8570;52.380;4.654;2023-02-21T07:15:51;8.80;99.90
16907;DHT22;8570;52.380;4.654;2023-02-21T07:20:53;8.80;99.90
16907;DHT22;8570;52.380;4.654;2023-02-21T07:25:56;8.80;99.90
16907;DHT22;8570;52.380;4.654;2023-02-21T07:30:58;8.80;99.90
16907;DHT22;8570;52.380;4.654;2023-02-21T07:36:00;8.80;99.90
16907;DHT22;8570;52.380;4.654;2023-02-21T07:41:03;8.80;99.90
16907;DHT22;8570;52.380;4.654;2023-02-21T07:46:09;8.80;99.90
16907;DHT22;8570;52.380;4.654;2023-02-21T07:51:11;8.80;99.90
16907;DHT22;8570;52.380;4.654;2023-02-21T07:56:14;8.90;99.90
16907;DHT22;8570;52.380;4.654;2023-02-21T08:01:16;8.90;99.90
16907;DHT22;8570;52.380;4.654;2023-02-21T08:06:18;8.90;99.90
16907;DHT22;8570;52.380;4.654;2023-02-21T08:11:21;8.90;99.90
16907;DHT22;8570;52.380;4.654;2023-02-21T08:16:23;8.90;99.90
16907;DHT22;8570;52.380;4.654;2023-02-21T08:21:25;8.90;99.90
16907;DHT22;8570;52.380;4.654;2023-02-21T08:26:28;8.90;99.90
16907;DHT22;8570;52.380;4.654;2023-02-21T08:31:33;9.00;99.90
16907;DHT22;8570;52.380;4.654;2023-02-21T08:36:37;9.00;99.90
16907;DHT22;8570;52.380;4.654;2023-02-21T08:41:42;9.00;99.90
16907;DHT22;8570;52.380;4.654;2023-02-21T08:46:44;9.10;99.90
16907;DHT22;8570;52.380;4.654;2023-02-21T08:51:46;9.10;99.90
16907;DHT22;8570;52.380;4.654;2023-02-21T08:56:49;9.20;99.90
16907;DHT22;8570;52.380;4.654;2023-02-21T09:01:51;9.20;99.90
16907;DHT22;8570;52.380;4.654;2023-02-21T09:06:53;9.20;99.90
16907;DHT22;8570;52.380;4.654;2023-02-21T09:11:56;9.30;99.90
16907;DHT22;8570;52.380;4.654;2023-02-21T09:16:58;9.30;99.90
16907;DHT22;8570;52.380;4.654;2023-02-21T09:22:00;9.30;99.90
16907;DHT22;8570;52.380;4.654;2023-02-21T09:27:05;9.40;99.90
16907;DHT22;8570;52.380;4.654;2023-02-21T09:32:07;9.40;99.90
16907;DHT22;8570;52.380;4.654;2023-02-21T09:37:09;9.40;99.90
16907;DHT22;8570;52.380;4.654;2023-02-21T09:42:14;9.40;99.90
16907;DHT22;8570;52.380;4.654;2023-02-21T09:47:26;9.50;99.90
16907;DHT22;8570;52.380;4.654;2023-02-21T09:52:31;9.50;99.90
16907;DHT22;8570;52.380;4.654;2023-02-21T09:57:35;9.60;99.90
16907;DHT22;8570;52.380;4.654;2023-02-21T10:02:48;9.60;99.90
16907;DHT22;8570;52.380;4.654;2023-02-21T10:07:57;9.60;99.90
16907;DHT22;8570;52.380;4.654;2023-02-21T10:13:09;9.60;99.90
16907;DHT22;8570;52.380;4.654;2023-02-21T10:18:22;9.70;99.90
16907;DHT22;8570;52.380;4.654;2023-02-21T10:23:30;9.80;99.90
16907;DHT22;8570;52.380;4.654;2023-02-21T10:28:34;9.80;99.90
16907;DHT22;8570;52.380;4.654;2023-02-21T10:33:38;9.90;99.90
16907;DHT22;8570;52.380;4.654;2023-02-21T10:38:42;9.90;99.90
16907;DHT22;8570;52.380;4.654;2023-02-21T10:43:52;10.00;99.90
16907;DHT22;8570;52.380;4.654;2023-02-21T10:49:15;10.00;99.90
16907;DHT22;8570;52.380;4.654;2023-02-21T10:54:19;10.00;99.90
16907;DHT22;8570;52.380;4.654;2023-02-21T10:59:26;10.00;99.90
16907;DHT22;8570;52.380;4.654;2023-02-21T11:04:30;10.00;99.90
16907;DHT22;8570;52.380;4.654;2023-02-21T11:14:39;10.10;99.90
16907;DHT22;8570;52.380;4.654;2023-02-21T11:19:52;10.10;99.90
16907;DHT22;8570;52.380;4.654;2023-02-21T11:25:03;10.10;99.90
16907;DHT22;8570;52.380;4.654;2023-02-21T11:30:14;10.10;99.90
16907;DHT22;8570;52.380;4.654;2023-02-21T11:35:23;10.10;99.90
16907;DHT22;8570;52.380;4.654;2023-02-21T11:40:30;10.00;99.90
16907;DHT22;8570;52.380;4.654;2023-02-21T11:45:37;10.00;99.90
16907;DHT22;8570;52.380;4.654;2023-02-21T11:50:43;10.00;99.90
16907;DHT22;8570;52.380;4.654;2023-02-21T11:55:55;10.00;99.90
16907;DHT22;8570;52.380;4.654;2023-02-21T12:01:02;9.90;99.90
16907;DHT22;8570;52.380;4.654;2023-02-21T12:06:10;9.90;99.90
16907;DHT22;8570;52.380;4.654;2023-02-21T12:11:43;9.90;99.90
16907;DHT22;8570;52.380;4.654;2023-02-21T12:16:56;9.80;99.90
16907;DHT22;8570;52.380;4.654;2023-02-21T12:22:02;9.70;99.90
16907;DHT22;8570;52.380;4.654;2023-02-21T12:27:10;9.60;99.90
16907;DHT22;8570;52.380;4.654;2023-02-21T12:32:36;9.60;99.90
16907;DHT22;8570;52.380;4.654;2023-02-21T12:37:46;9.50;99.90
16907;DHT22;8570;52.380;4.654;2023-02-21T12:43:01;9.50;99.90
16907;DHT22;8570;52.380;4.654;2023-02-21T12:48:14;9.50;99.90
16907;DHT22;8570;52.380;4.654;2023-02-21T12:53:21;9.80;99.90
16907;DHT22;8570;52.380;4.654;2023-02-21T12:58:28;9.90;99.90
16907;DHT22;8570;52.380;4.654;2023-02-21T13:03:43;9.70;99.90
16907;DHT22;8570;52.380;4.654;2023-02-21T13:08:55;9.60;99.90
16907;DHT22;8570;52.380;4.654;2023-02-21T13:14:00;9.50;99.90
16907;DHT22;8570;52.380;4.654;2023-02-21T13:19:06;9.50;99.90
16907;DHT22;8570;52.380;4.654;2023-02-21T13:24:47;9.40;99.90
16907;DHT22;8570;52.380;4.654;2023-02-21T13:30:00;9.40;99.90
16907;DHT22;8570;52.380;4.654;2023-02-21T13:35:07;9.30;99.90
16907;DHT22;8570;52.380;4.654;2023-02-21T13:40:18;9.30;99.90
16907;DHT22;8570;52.380;4.654;2023-02-21T13:45:25;9.30;99.90
16907;DHT22;8570;52.380;4.654;2023-02-21T13:50:48;9.30;99.90
16907;DHT22;8570;52.380;4.654;2023-02-21T13:56:15;9.30;99.90
16907;DHT22;8570;52.380;4.654;2023-02-21T14:01:40;9.20;99.90
16907;DHT22;8570;52.380;4.654;2023-02-21T14:06:54;9.20;99.90
16907;DHT22;8570;52.380;4.654;2023-02-21T14:12:01;9.10;99.90
16907;DHT22;8570;52.380;4.654;2023-02-21T14:17:06;9.10;99.90
16907;DHT22;8570;52.380;4.654;2023-02-21T14:22:13;9.00;99.90
16907;DHT22;8570;52.380;4.654;2023-02-21T14:27:35;9.10;99.90
16907;DHT22;8570;52.380;4.654;2023-02-21T14:32:40;9.00;99.90
16907;DHT22;8570;52.380;4.654;2023-02-21T14:37:58;9.00;99.90
16907;DHT22;8570;52.380;4.654;2023-02-21T14:43:18;9.00;99.90
16907;DHT22;8570;52.380;4.654;2023-02-21T14:48:45;9.00;99.90
16907;DHT22;8570;52.380;4.654;2023-02-21T14:54:05;8.90;99.90
16907;DHT22;8570;52.380;4.654;2023-02-21T14:59:31;8.90;99.90
16907;DHT22;8570;52.380;4.654;2023-02-21T15:04:40;8.90;99.90
16907;DHT22;8570;52.380;4.654;2023-02-21T15:09:44;8.80;99.90
16907;DHT22;8570;52.380;4.654;2023-02-21T15:14:48;8.70;99.90
16907;DHT22;8570;52.380;4.654;2023-02-21T15:20:01;8.70;99.90
16907;DHT22;8570;52.380;4.654;2023-02-21T15:25:16;8.60;99.90
16907;DHT22;8570;52.380;4.654;2023-02-21T15:30:21;8.60;99.90
16907;DHT22;8570;52.380;4.654;2023-02-21T15:35:30;8.50;99.90
16907;DHT22;8570;52.380;4.654;2023-02-21T15:40:35;8.50;99.90
16907;DHT22;8570;52.380;4.654;2023-02-21T15:45:41;8.50;99.90
16907;DHT22;8570;52.380;4.654;2023-02-21T15:50:45;8.50;99.90
16907;DHT22;8570;52.380;4.654;2023-02-21T15:55:50;8.50;99.90
16907;DHT22;8570;52.380;4.654;2023-02-21T16:01:04;8.50;99.90
16907;DHT22;8570;52.380;4.654;2023-02-21T16:06:16;8.40;99.90
16907;DHT22;8570;52.380;4.654;2023-02-21T16:11:20;8.40;99.90
16907;DHT22;8570;52.380;4.654;2023-02-21T16:16:22;8.40;99.90
16907;DHT22;8570;52.380;4.654;2023-02-21T16:21:27;8.40;99.90
16907;DHT22;8570;52.380;4.654;2023-02-21T16:26:31;8.40;99.90
16907;DHT22;8570;52.380;4.654;2023-02-21T16:31:33;8.40;99.90
16907;DHT22;8570;52.380;4.654;2023-02-21T16:36:39;8.40;99.90
16907;DHT22;8570;52.380;4.654;2023-02-21T16:41:42;8.40;99.90
16907;DHT22;8570;52.380;4.654;2023-02-21T16:46:44;8.40;99.90
16907;DHT22;8570;52.380;4.654;2023-02-21T16:51:46;8.50;99.90
16907;DHT22;8570;52.380;4.654;2023-02-21T16:56:50;8.50;99.90
16907;DHT22;8570;52.380;4.654;2023-02-21T17:01:53;8.50;99.90
16907;DHT22;8570;52.380;4.654;2023-02-21T17:06:56;8.50;99.90
16907;DHT22;8570;52.380;4.654;2023-02-21T17:12:00;8.50;99.90
16907;DHT22;8570;52.380;4.654;2023-02-21T17:17:01;8.40;99.90
16907;DHT22;8570;52.380;4.654;2023-02-21T17:22:03;8.40;99.90
16907;DHT22;8570;52.380;4.654;2023-02-21T17:27:06;8.40;99.90
16907;DHT22;8570;52.380;4.654;2023-02-21T17:32:08;8.30;99.90
16907;DHT22;8570;52.380;4.654;2023-02-21T17:37:10;8.30;99.90
16907;DHT22;8570;52.380;4.654;2023-02-21T17:42:13;8.30;99.90
16907;DHT22;8570;52.380;4.654;2023-02-21T17:47:17;8.30;99.90
16907;DHT22;8570;52.380;4.654;2023-02-21T17:52:20;8.30;99.90
16907;DHT22;8570;52.380;4.654;2023-02-21T17:57:24;8.30;99.90
16907;DHT22;8570;52.380;4.654;2023-02-21T18:02:25;8.30;99.90
16907;DHT22;8570;52.380;4.654;2023-02-21T18:07:27;8.40;99.90
16907;DHT22;8570;52.380;4.654;2023-02-21T18:12:33;8.40;99.90
16907;DHT22;8570;52.380;4.654;2023-02-21T18:17:35;8.30;99.90
16907;DHT22;8570;52.380;4.654;2023-02-21T18:22:37;8.30;99.90
16907;DHT22;8570;52.380;4.654;2023-02-21T18:27:41;8.30;99.90
16907;DHT22;8570;52.380;4.654;2023-02-21T18:32:44;8.30;99.90
16907;DHT22;8570;52.380;4.654;2023-02-21T18:37:46;8.30;99.90
16907;DHT22;8570;52.380;4.654;2023-02-21T18:42:49;8.30;99.90
16907;DHT22;8570;52.380;4.654;2023-02-21T18:47:51;8.30;99.90
16907;DHT22;8570;52.380;4.654;2023-02-21T18:52:53;8.30;99.90
16907;DHT22;8570;52.380;4.654;2023-02-21T18:57:56;8.30;99.90
16907;DHT22;8570;52.380;4.654;2023-02-21T19:02:58;8.30;99.90
16907;DHT22;8570;52.380;4.654;2023-02-21T19:08:00;8.30;99.90
16907;DHT22;8570;52.380;4.654;2023-02-21T19:13:04;8.30;99.90
16907;DHT22;8570;52.380;4.654;2023-02-21T19:18:06;8.30;99.90
16907;DHT22;8570;52.380;4.654;2023-02-21T19:23:08;8.20;99.90
16907;DHT22;8570;52.380;4.654;2023-02-21T19:28:11;8.30;99.90
16907;DHT22;8570;52.380;4.654;2023-02-21T19:33:13;8.30;99.90
16907;DHT22;8570;52.380;4.654;2023-02-21T19:38:15;8.30;99.90
16907;DHT22;8570;52.380;4.654;2023-02-21T19:43:19;8.30;99.90
16907;DHT22;8570;52.380;4.654;2023-02-21T19:48:21;8.20;99.90
16907;DHT22;8570;52.380;4.654;2023-02-21T19:53:23;8.20;99.90
16907;DHT22;8570;52.380;4.654;2023-02-21T19:58:26;8.20;99.90
16907;DHT22;8570;52.380;4.654;2023-02-21T20:03:28;8.20;99.90
16907;DHT22;8570;52.380;4.654;2023-02-21T20:08:30;8.20;99.90
16907;DHT22;8570;52.380;4.654;2023-02-21T20:13:33;8.20;99.90
16907;DHT22;8570;52.380;4.654;2023-02-21T20:18:36;8.10;99.90
16907;DHT22;8570;52.380;4.654;2023-02-21T20:23:38;8.10;99.90
16907;DHT22;8570;52.380;4.654;2023-02-21T20:28:41;8.10;99.90
16907;DHT22;8570;52.380;4.654;2023-02-21T20:33:43;8.10;99.90
16907;DHT22;8570;52.380;4.654;2023-02-21T20:38:46;8.10;99.90
16907;DHT22;8570;52.380;4.654;2023-02-21T20:43:49;8.10;99.90
16907;DHT22;8570;52.380;4.654;2023-02-21T20:48:52;8.10;99.90
16907;DHT22;8570;52.380;4.654;2023-02-21T20:53:54;8.10;99.90
16907;DHT22;8570;52.380;4.654;2023-02-21T20:59:01;8.00;99.90
16907;DHT22;8570;52.380;4.654;2023-02-21T21:04:04;8.10;99.90
16907;DHT22;8570;52.380;4.654;2023-02-21T21:09:07;8.10;99.90
16907;DHT22;8570;52.380;4.654;2023-02-21T21:14:11;8.10;99.90
16907;DHT22;8570;52.380;4.654;2023-02-21T21:19:15;8.10;99.90
16907;DHT22;8570;52.380;4.654;2023-02-21T21:24:17;8.10;99.90
16907;DHT22;8570;52.380;4.654;2023-02-21T21:29:21;8.10;99.90
16907;DHT22;8570;52.380;4.654;2023-02-21T21:34:26;8.20;99.90
16907;DHT22;8570;52.380;4.654;2023-02-21T21:39:29;8.10;99.90
16907;DHT22;8570;52.380;4.654;2023-02-21T21:44:32;8.10;99.90
16907;DHT22;8570;52.380;4.654;2023-02-21T21:49:34;8.10;99.90
16907;DHT22;8570;52.380;4.654;2023-02-21T21:54:36;8.10;99.90
16907;DHT22;8570;52.380;4.654;2023-02-21T21:59:43;8.10;99.90
16907;DHT22;8570;52.380;4.654;2023-02-21T22:04:46;8.10;99.90
16907;DHT22;8570;52.380;4.654;2023-02-21T22:09:53;8.10;99.90
16907;DHT22;8570;52.380;4.654;2023-02-21T22:14:56;8.10;99.90
16907;DHT22;8570;52.380;4.654;2023-02-21T22:19:58;8.10;99.90
16907;DHT22;8570;52.380;4.654;2023-02-21T22:25:00;8.10;99.90
16907;DHT22;8570;52.380;4.654;2023-02-21T22:30:04;8.10;99.90
16907;DHT22;8570;52.380;4.654;2023-02-21T22:35:09;8.10;99.90
16907;DHT22;8570;52.380;4.654;2023-02-21T22:40:19;8.10;99.90
16907;DHT22;8570;52.380;4.654;2023-02-21T22:45:25;8.10;99.90
16907;DHT22;8570;52.380;4.654;2023-02-21T22:50:28;8.10;99.90
16907;DHT22;8570;52.380;4.654;2023-02-21T22:55:32;8.00;99.90
16907;DHT22;8570;52.380;4.654;2023-02-21T23:00:37;8.00;99.90
16907;DHT22;8570;52.380;4.654;2023-02-21T23:05:40;8.00;99.90
16907;DHT22;8570;52.380;4.654;2023-02-21T23:10:43;7.90;99.90
16907;DHT22;8570;52.380;4.654;2023-02-21T23:15:47;7.90;99.90
16907;DHT22;8570;52.380;4.654;2023-02-21T23:20:50;7.90;99.90
16907;DHT22;8570;52.380;4.654;2023-02-21T23:25:54;7.80;99.90
16907;DHT22;8570;52.380;4.654;2023-02-21T23:30:59;7.80;99.90
16907;DHT22;8570;52.380;4.654;2023-02-21T23:36:01;7.80;99.90
16907;DHT22;8570;52.380;4.654;2023-02-21T23:41:05;7.80;99.90
16907;DHT22;8570;52.380;4.654;2023-02-21T23:46:16;7.70;99.90
16907;DHT22;8570;52.380;4.654;2023-02-21T23:51:20;7.70;99.90
16907;DHT22;8570;52.380;4.654;2023-02-21T23:56:22;7.70;99.90
